sensor_id;sensor_type;location;lat;lon;timestamp;P1;durP1;ratioP1;P2;durP2;ratioP2
32200;SDS011;18701;45.588;5.288;2022-12-11T00:01:55;24.83;;;10.98;;
32200;SDS011;18701;45.588;5.288;2022-12-11T00:04:20;21.58;;;11.25;;
32200;SDS011;18701;45.588;5.288;2022-12-11T00:06:46;22.48;;;11.68;;
32200;SDS011;18701;45.588;5.288;2022-12-11T00:09:14;20.55;;;10.25;;
32200;SDS011;18701;45.588;5.288;2022-12-11T00:11:41;20.60;;;11.32;;
32200;SDS011;18701;45.588;5.288;2022-12-11T00:14:06;18.38;;;10.18;;
32200;SDS011;18701;45.588;5.288;2022-12-11T00:16:32;18.30;;;11.13;;
32200;SDS011;18701;45.588;5.288;2022-12-11T00:18:58;21.25;;;10.40;;
32200;SDS011;18701;45.588;5.288;2022-12-11T00:21:23;19.38;;;10.60;;
32200;SDS011;18701;45.588;5.288;2022-12-11T00:23:49;18.70;;;11.27;;
32200;SDS011;18701;45.588;5.288;2022-12-11T00:26:15;19.85;;;10.80;;
32200;SDS011;18701;45.588;5.288;2022-12-11T00:28:42;19.95;;;11.80;;
32200;SDS011;18701;45.588;5.288;2022-12-11T00:31:10;19.65;;;10.73;;
32200;SDS011;18701;45.588;5.288;2022-12-11T00:33:38;21.23;;;11.70;;
32200;SDS011;18701;45.588;5.288;2022-12-11T00:36:09;22.63;;;10.75;;
32200;SDS011;18701;45.588;5.288;2022-12-11T00:38:39;20.73;;;10.82;;
32200;SDS011;18701;45.588;5.288;2022-12-11T00:41:05;18.60;;;10.77;;
32200;SDS011;18701;45.588;5.288;2022-12-11T00:43:30;21.48;;;11.30;;
32200;SDS011;18701;45.588;5.288;2022-12-11T00:45:56;19.45;;;10.35;;
32200;SDS011;18701;45.588;5.288;2022-12-11T00:48:22;21.55;;;11.30;;
32200;SDS011;18701;45.588;5.288;2022-12-11T00:50:47;23.30;;;11.15;;
32200;SDS011;18701;45.588;5.288;2022-12-11T00:53:13;22.30;;;10.13;;
32200;SDS011;18701;45.588;5.288;2022-12-11T00:55:39;22.80;;;12.02;;
32200;SDS011;18701;45.588;5.288;2022-12-11T00:58:06;22.63;;;10.63;;
32200;SDS011;18701;45.588;5.288;2022-12-11T01:00:33;18.80;;;11.30;;
32200;SDS011;18701;45.588;5.288;2022-12-11T01:02:59;21.60;;;10.52;;
32200;SDS011;18701;45.588;5.288;2022-12-11T01:05:25;22.90;;;11.68;;
32200;SDS011;18701;45.588;5.288;2022-12-11T01:07:51;20.77;;;11.05;;
32200;SDS011;18701;45.588;5.288;2022-12-11T01:10:16;20.90;;;11.52;;
32200;SDS011;18701;45.588;5.288;2022-12-11T01:12:48;21.25;;;11.10;;
32200;SDS011;18701;45.588;5.288;2022-12-11T01:15:14;22.08;;;11.27;;
32200;SDS011;18701;45.588;5.288;2022-12-11T01:17:40;22.52;;;12.48;;
32200;SDS011;18701;45.588;5.288;2022-12-11T01:20:06;23.05;;;12.38;;
32200;SDS011;18701;45.588;5.288;2022-12-11T01:22:32;24.88;;;12.32;;
32200;SDS011;18701;45.588;5.288;2022-12-11T01:24:57;23.23;;;11.00;;
32200;SDS011;18701;45.588;5.288;2022-12-11T01:27:23;26.80;;;13.05;;
32200;SDS011;18701;45.588;5.288;2022-12-11T01:29:48;23.75;;;12.30;;
32200;SDS011;18701;45.588;5.288;2022-12-11T01:32:14;21.92;;;11.77;;
32200;SDS011;18701;45.588;5.288;2022-12-11T01:34:40;22.05;;;12.07;;
32200;SDS011;18701;45.588;5.288;2022-12-11T01:37:06;22.52;;;12.40;;
32200;SDS011;18701;45.588;5.288;2022-12-11T01:39:32;25.30;;;12.82;;
32200;SDS011;18701;45.588;5.288;2022-12-11T01:41:58;24.75;;;12.82;;
32200;SDS011;18701;45.588;5.288;2022-12-11T01:46:51;27.35;;;13.38;;
32200;SDS011;18701;45.588;5.288;2022-12-11T01:49:17;25.55;;;11.98;;
32200;SDS011;18701;45.588;5.288;2022-12-11T01:51:48;22.77;;;12.55;;
32200;SDS011;18701;45.588;5.288;2022-12-11T01:54:20;24.75;;;10.77;;
32200;SDS011;18701;45.588;5.288;2022-12-11T01:56:49;24.00;;;12.75;;
32200;SDS011;18701;45.588;5.288;2022-12-11T01:59:19;21.83;;;13.02;;
32200;SDS011;18701;45.588;5.288;2022-12-11T02:04:48;27.30;;;12.45;;
32200;SDS011;18701;45.588;5.288;2022-12-11T02:07:14;21.98;;;12.25;;
32200;SDS011;18701;45.588;5.288;2022-12-11T02:09:40;25.08;;;11.73;;
32200;SDS011;18701;45.588;5.288;2022-12-11T02:20:02;25.95;;;14.55;;
32200;SDS011;18701;45.588;5.288;2022-12-11T02:30:53;21.95;;;10.82;;
32200;SDS011;18701;45.588;5.288;2022-12-11T02:33:26;20.73;;;12.25;;
32200;SDS011;18701;45.588;5.288;2022-12-11T02:36:09;24.42;;;11.57;;
32200;SDS011;18701;45.588;5.288;2022-12-11T02:38:38;23.58;;;12.10;;
32200;SDS011;18701;45.588;5.288;2022-12-11T02:41:07;26.25;;;13.70;;
32200;SDS011;18701;45.588;5.288;2022-12-11T02:43:35;24.50;;;13.02;;
32200;SDS011;18701;45.588;5.288;2022-12-11T02:46:02;23.10;;;12.25;;
32200;SDS011;18701;45.588;5.288;2022-12-11T02:48:30;26.15;;;11.98;;
32200;SDS011;18701;45.588;5.288;2022-12-11T02:50:57;24.20;;;12.15;;
32200;SDS011;18701;45.588;5.288;2022-12-11T02:53:25;24.80;;;13.60;;
32200;SDS011;18701;45.588;5.288;2022-12-11T02:56:02;24.23;;;13.35;;
32200;SDS011;18701;45.588;5.288;2022-12-11T02:58:34;24.13;;;12.60;;
32200;SDS011;18701;45.588;5.288;2022-12-11T03:01:06;27.65;;;12.90;;
32200;SDS011;18701;45.588;5.288;2022-12-11T03:03:32;31.58;;;15.85;;
32200;SDS011;18701;45.588;5.288;2022-12-11T03:05:57;24.33;;;14.45;;
32200;SDS011;18701;45.588;5.288;2022-12-11T03:08:23;24.80;;;12.80;;
32200;SDS011;18701;45.588;5.288;2022-12-11T03:10:50;27.50;;;13.20;;
32200;SDS011;18701;45.588;5.288;2022-12-11T03:13:17;26.10;;;13.05;;
32200;SDS011;18701;45.588;5.288;2022-12-11T03:21:17;27.80;;;13.43;;
32200;SDS011;18701;45.588;5.288;2022-12-11T03:27:12;23.73;;;13.20;;
32200;SDS011;18701;45.588;5.288;2022-12-11T03:29:59;24.15;;;13.65;;
32200;SDS011;18701;45.588;5.288;2022-12-11T03:32:57;25.58;;;12.05;;
32200;SDS011;18701;45.588;5.288;2022-12-11T03:35:36;23.63;;;12.73;;
32200;SDS011;18701;45.588;5.288;2022-12-11T03:38:06;24.70;;;13.32;;
32200;SDS011;18701;45.588;5.288;2022-12-11T03:40:35;22.95;;;12.68;;
32200;SDS011;18701;45.588;5.288;2022-12-11T03:43:04;26.87;;;13.40;;
32200;SDS011;18701;45.588;5.288;2022-12-11T03:45:31;26.02;;;13.25;;
32200;SDS011;18701;45.588;5.288;2022-12-11T03:47:57;24.98;;;13.45;;
32200;SDS011;18701;45.588;5.288;2022-12-11T03:50:25;23.67;;;11.68;;
32200;SDS011;18701;45.588;5.288;2022-12-11T03:52:56;25.48;;;12.48;;
32200;SDS011;18701;45.588;5.288;2022-12-11T03:55:24;27.25;;;14.13;;
32200;SDS011;18701;45.588;5.288;2022-12-11T03:57:51;25.35;;;13.23;;
32200;SDS011;18701;45.588;5.288;2022-12-11T04:00:18;25.65;;;13.40;;
32200;SDS011;18701;45.588;5.288;2022-12-11T04:02:44;24.65;;;11.65;;
32200;SDS011;18701;45.588;5.288;2022-12-11T04:05:30;24.75;;;11.18;;
32200;SDS011;18701;45.588;5.288;2022-12-11T04:07:56;26.13;;;13.52;;
32200;SDS011;18701;45.588;5.288;2022-12-11T04:10:21;31.33;;;14.63;;
32200;SDS011;18701;45.588;5.288;2022-12-11T04:12:47;25.55;;;13.50;;
32200;SDS011;18701;45.588;5.288;2022-12-11T04:15:12;29.70;;;13.25;;
32200;SDS011;18701;45.588;5.288;2022-12-11T04:17:38;29.58;;;13.43;;
32200;SDS011;18701;45.588;5.288;2022-12-11T04:20:22;25.63;;;13.68;;
32200;SDS011;18701;45.588;5.288;2022-12-11T04:23:14;30.00;;;14.38;;
32200;SDS011;18701;45.588;5.288;2022-12-11T04:26:08;24.90;;;12.00;;
32200;SDS011;18701;45.588;5.288;2022-12-11T04:28:36;24.17;;;13.20;;
32200;SDS011;18701;45.588;5.288;2022-12-11T04:31:02;26.00;;;13.55;;
32200;SDS011;18701;45.588;5.288;2022-12-11T04:33:28;25.83;;;13.20;;
32200;SDS011;18701;45.588;5.288;2022-12-11T04:35:56;29.45;;;14.25;;
32200;SDS011;18701;45.588;5.288;2022-12-11T04:38:23;28.20;;;15.20;;
32200;SDS011;18701;45.588;5.288;2022-12-11T04:40:49;26.75;;;14.45;;
32200;SDS011;18701;45.588;5.288;2022-12-11T04:43:20;29.85;;;14.20;;
32200;SDS011;18701;45.588;5.288;2022-12-11T04:45:46;30.10;;;13.50;;
32200;SDS011;18701;45.588;5.288;2022-12-11T04:48:12;28.77;;;14.70;;
32200;SDS011;18701;45.588;5.288;2022-12-11T04:50:37;31.88;;;14.80;;
32200;SDS011;18701;45.588;5.288;2022-12-11T04:53:03;26.38;;;13.35;;
32200;SDS011;18701;45.588;5.288;2022-12-11T04:55:28;31.55;;;14.52;;
32200;SDS011;18701;45.588;5.288;2022-12-11T04:57:54;28.95;;;14.73;;
32200;SDS011;18701;45.588;5.288;2022-12-11T05:00:19;28.38;;;15.13;;
32200;SDS011;18701;45.588;5.288;2022-12-11T05:02:45;27.65;;;14.73;;
32200;SDS011;18701;45.588;5.288;2022-12-11T05:05:11;28.85;;;14.48;;
32200;SDS011;18701;45.588;5.288;2022-12-11T05:07:37;30.00;;;14.77;;
32200;SDS011;18701;45.588;5.288;2022-12-11T05:10:03;32.22;;;14.77;;
32200;SDS011;18701;45.588;5.288;2022-12-11T05:12:30;29.27;;;15.50;;
32200;SDS011;18701;45.588;5.288;2022-12-11T05:14:56;33.03;;;14.90;;
32200;SDS011;18701;45.588;5.288;2022-12-11T05:17:22;28.27;;;14.15;;
32200;SDS011;18701;45.588;5.288;2022-12-11T05:19:48;31.40;;;16.70;;
32200;SDS011;18701;45.588;5.288;2022-12-11T05:22:15;34.10;;;16.83;;
32200;SDS011;18701;45.588;5.288;2022-12-11T05:24:41;29.83;;;15.43;;
32200;SDS011;18701;45.588;5.288;2022-12-11T05:27:07;33.55;;;15.95;;
32200;SDS011;18701;45.588;5.288;2022-12-11T05:29:34;28.02;;;14.60;;
32200;SDS011;18701;45.588;5.288;2022-12-11T05:31:59;32.35;;;14.90;;
32200;SDS011;18701;45.588;5.288;2022-12-11T05:34:25;39.40;;;17.15;;
32200;SDS011;18701;45.588;5.288;2022-12-11T05:36:51;31.38;;;15.57;;
32200;SDS011;18701;45.588;5.288;2022-12-11T05:39:16;29.93;;;16.23;;
32200;SDS011;18701;45.588;5.288;2022-12-11T05:41:42;30.67;;;15.48;;
32200;SDS011;18701;45.588;5.288;2022-12-11T05:44:10;27.08;;;14.15;;
32200;SDS011;18701;45.588;5.288;2022-12-11T05:46:37;30.38;;;14.75;;
32200;SDS011;18701;45.588;5.288;2022-12-11T05:49:03;33.63;;;16.80;;
32200;SDS011;18701;45.588;5.288;2022-12-11T05:51:29;29.45;;;15.20;;
32200;SDS011;18701;45.588;5.288;2022-12-11T05:53:55;38.58;;;16.60;;
32200;SDS011;18701;45.588;5.288;2022-12-11T05:56:22;34.78;;;16.98;;
32200;SDS011;18701;45.588;5.288;2022-12-11T05:58:50;31.10;;;15.00;;
32200;SDS011;18701;45.588;5.288;2022-12-11T06:01:35;29.13;;;14.90;;
32200;SDS011;18701;45.588;5.288;2022-12-11T06:04:03;30.48;;;14.05;;
32200;SDS011;18701;45.588;5.288;2022-12-11T06:06:30;30.20;;;15.90;;
32200;SDS011;18701;45.588;5.288;2022-12-11T06:08:57;35.50;;;16.38;;
32200;SDS011;18701;45.588;5.288;2022-12-11T06:11:25;37.05;;;17.08;;
32200;SDS011;18701;45.588;5.288;2022-12-11T06:13:53;37.28;;;16.83;;
32200;SDS011;18701;45.588;5.288;2022-12-11T06:16:19;28.27;;;15.15;;
32200;SDS011;18701;45.588;5.288;2022-12-11T06:18:45;31.73;;;16.20;;
32200;SDS011;18701;45.588;5.288;2022-12-11T06:21:14;32.05;;;16.23;;
32200;SDS011;18701;45.588;5.288;2022-12-11T06:23:51;35.42;;;16.60;;
32200;SDS011;18701;45.588;5.288;2022-12-11T06:26:19;30.00;;;15.33;;
32200;SDS011;18701;45.588;5.288;2022-12-11T06:28:45;31.87;;;15.73;;
32200;SDS011;18701;45.588;5.288;2022-12-11T06:31:12;29.50;;;16.23;;
32200;SDS011;18701;45.588;5.288;2022-12-11T06:33:38;32.23;;;16.37;;
32200;SDS011;18701;45.588;5.288;2022-12-11T06:36:05;32.30;;;15.50;;
32200;SDS011;18701;45.588;5.288;2022-12-11T06:38:33;32.42;;;15.35;;
32200;SDS011;18701;45.588;5.288;2022-12-11T06:41:00;29.77;;;15.07;;
32200;SDS011;18701;45.588;5.288;2022-12-11T06:43:28;35.90;;;16.57;;
32200;SDS011;18701;45.588;5.288;2022-12-11T06:45:54;32.30;;;16.40;;
32200;SDS011;18701;45.588;5.288;2022-12-11T06:48:20;28.75;;;14.07;;
32200;SDS011;18701;45.588;5.288;2022-12-11T06:50:45;32.27;;;16.27;;
32200;SDS011;18701;45.588;5.288;2022-12-11T06:53:11;28.05;;;13.48;;
32200;SDS011;18701;45.588;5.288;2022-12-11T06:55:38;29.53;;;14.60;;
32200;SDS011;18701;45.588;5.288;2022-12-11T06:58:05;35.45;;;16.58;;
32200;SDS011;18701;45.588;5.288;2022-12-11T07:00:33;35.37;;;16.07;;
32200;SDS011;18701;45.588;5.288;2022-12-11T07:03:00;30.63;;;15.93;;
32200;SDS011;18701;45.588;5.288;2022-12-11T07:05:26;30.83;;;15.43;;
32200;SDS011;18701;45.588;5.288;2022-12-11T07:07:54;27.13;;;13.40;;
32200;SDS011;18701;45.588;5.288;2022-12-11T07:10:20;36.07;;;16.63;;
32200;SDS011;18701;45.588;5.288;2022-12-11T07:12:46;33.93;;;17.90;;
32200;SDS011;18701;45.588;5.288;2022-12-11T07:15:12;31.53;;;15.10;;
32200;SDS011;18701;45.588;5.288;2022-12-11T07:17:37;33.17;;;15.60;;
32200;SDS011;18701;45.588;5.288;2022-12-11T07:20:03;36.47;;;16.27;;
32200;SDS011;18701;45.588;5.288;2022-12-11T07:22:29;34.43;;;16.90;;
32200;SDS011;18701;45.588;5.288;2022-12-11T07:24:55;31.93;;;14.70;;
32200;SDS011;18701;45.588;5.288;2022-12-11T07:27:21;31.93;;;15.57;;
32200;SDS011;18701;45.588;5.288;2022-12-11T07:29:46;34.27;;;16.17;;
32200;SDS011;18701;45.588;5.288;2022-12-11T07:32:14;34.08;;;15.95;;
32200;SDS011;18701;45.588;5.288;2022-12-11T07:34:39;32.83;;;16.37;;
32200;SDS011;18701;45.588;5.288;2022-12-11T07:37:05;32.03;;;16.05;;
32200;SDS011;18701;45.588;5.288;2022-12-11T07:39:30;33.63;;;16.70;;
32200;SDS011;18701;45.588;5.288;2022-12-11T07:41:56;33.38;;;16.73;;
32200;SDS011;18701;45.588;5.288;2022-12-11T07:44:22;37.63;;;17.60;;
32200;SDS011;18701;45.588;5.288;2022-12-11T07:46:47;33.90;;;16.47;;
32200;SDS011;18701;45.588;5.288;2022-12-11T07:49:13;36.03;;;17.10;;
32200;SDS011;18701;45.588;5.288;2022-12-11T07:51:39;34.00;;;17.00;;
32200;SDS011;18701;45.588;5.288;2022-12-11T07:54:07;29.90;;;15.63;;
32200;SDS011;18701;45.588;5.288;2022-12-11T07:56:40;32.15;;;16.65;;
32200;SDS011;18701;45.588;5.288;2022-12-11T07:59:10;38.83;;;16.10;;
32200;SDS011;18701;45.588;5.288;2022-12-11T08:01:36;34.97;;;16.48;;
32200;SDS011;18701;45.588;5.288;2022-12-11T08:04:04;34.43;;;16.47;;
32200;SDS011;18701;45.588;5.288;2022-12-11T08:06:32;35.75;;;17.77;;
32200;SDS011;18701;45.588;5.288;2022-12-11T08:09:00;36.03;;;16.13;;
32200;SDS011;18701;45.588;5.288;2022-12-11T08:11:27;38.43;;;16.73;;
32200;SDS011;18701;45.588;5.288;2022-12-11T08:13:53;36.88;;;17.70;;
32200;SDS011;18701;45.588;5.288;2022-12-11T08:16:19;33.35;;;15.10;;
32200;SDS011;18701;45.588;5.288;2022-12-11T08:18:45;39.90;;;16.80;;
32200;SDS011;18701;45.588;5.288;2022-12-11T08:23:42;37.03;;;16.73;;
32200;SDS011;18701;45.588;5.288;2022-12-11T08:26:09;36.57;;;17.63;;
32200;SDS011;18701;45.588;5.288;2022-12-11T08:28:37;43.00;;;18.83;;
32200;SDS011;18701;45.588;5.288;2022-12-11T08:31:03;36.10;;;17.90;;
32200;SDS011;18701;45.588;5.288;2022-12-11T08:33:30;45.90;;;19.27;;
32200;SDS011;18701;45.588;5.288;2022-12-11T08:35:56;33.67;;;17.20;;
32200;SDS011;18701;45.588;5.288;2022-12-11T08:38:21;38.03;;;18.23;;
32200;SDS011;18701;45.588;5.288;2022-12-11T08:40:47;33.95;;;17.38;;
32200;SDS011;18701;45.588;5.288;2022-12-11T08:43:12;38.20;;;16.63;;
32200;SDS011;18701;45.588;5.288;2022-12-11T08:45:38;36.72;;;18.83;;
32200;SDS011;18701;45.588;5.288;2022-12-11T08:48:04;34.00;;;14.80;;
32200;SDS011;18701;45.588;5.288;2022-12-11T08:50:30;35.80;;;16.73;;
32200;SDS011;18701;45.588;5.288;2022-12-11T08:52:56;35.23;;;16.57;;
32200;SDS011;18701;45.588;5.288;2022-12-11T08:55:22;39.57;;;17.27;;
32200;SDS011;18701;45.588;5.288;2022-12-11T08:57:48;35.03;;;16.95;;
32200;SDS011;18701;45.588;5.288;2022-12-11T09:00:14;36.17;;;17.13;;
32200;SDS011;18701;45.588;5.288;2022-12-11T09:02:41;32.70;;;16.23;;
32200;SDS011;18701;45.588;5.288;2022-12-11T09:05:06;33.63;;;16.70;;
32200;SDS011;18701;45.588;5.288;2022-12-11T09:07:34;31.37;;;16.40;;
32200;SDS011;18701;45.588;5.288;2022-12-11T09:10:01;33.58;;;17.33;;
32200;SDS011;18701;45.588;5.288;2022-12-11T09:12:27;35.45;;;16.70;;
32200;SDS011;18701;45.588;5.288;2022-12-11T09:14:53;31.10;;;16.17;;
32200;SDS011;18701;45.588;5.288;2022-12-11T09:17:19;30.52;;;16.05;;
32200;SDS011;18701;45.588;5.288;2022-12-11T09:19:44;34.70;;;16.80;;
32200;SDS011;18701;45.588;5.288;2022-12-11T09:22:10;32.97;;;15.30;;
32200;SDS011;18701;45.588;5.288;2022-12-11T09:24:36;28.85;;;14.73;;
32200;SDS011;18701;45.588;5.288;2022-12-11T09:27:03;32.22;;;16.58;;
32200;SDS011;18701;45.588;5.288;2022-12-11T09:29:29;28.90;;;15.80;;
32200;SDS011;18701;45.588;5.288;2022-12-11T09:31:55;31.10;;;15.98;;
32200;SDS011;18701;45.588;5.288;2022-12-11T09:34:21;30.58;;;15.32;;
32200;SDS011;18701;45.588;5.288;2022-12-11T09:36:46;29.95;;;15.43;;
32200;SDS011;18701;45.588;5.288;2022-12-11T09:39:13;30.92;;;14.52;;
32200;SDS011;18701;45.588;5.288;2022-12-11T09:44:30;30.65;;;15.30;;
32200;SDS011;18701;45.588;5.288;2022-12-11T09:47:38;30.73;;;15.07;;
32200;SDS011;18701;45.588;5.288;2022-12-11T09:58:43;28.10;;;14.75;;
32200;SDS011;18701;45.588;5.288;2022-12-11T10:06:55;27.38;;;13.98;;
32200;SDS011;18701;45.588;5.288;2022-12-11T10:10:13;25.77;;;13.25;;
32200;SDS011;18701;45.588;5.288;2022-12-11T10:12:36;24.80;;;13.10;;
32200;SDS011;18701;45.588;5.288;2022-12-11T10:17:41;28.08;;;14.57;;
32200;SDS011;18701;45.588;5.288;2022-12-11T10:22:55;31.35;;;15.88;;
32200;SDS011;18701;45.588;5.288;2022-12-11T10:25:31;30.55;;;15.18;;
32200;SDS011;18701;45.588;5.288;2022-12-11T10:28:09;29.42;;;14.40;;
32200;SDS011;18701;45.588;5.288;2022-12-11T10:36:10;28.92;;;15.60;;
32200;SDS011;18701;45.588;5.288;2022-12-11T10:38:43;28.05;;;15.02;;
32200;SDS011;18701;45.588;5.288;2022-12-11T10:41:11;29.33;;;14.68;;
32200;SDS011;18701;45.588;5.288;2022-12-11T10:43:46;26.90;;;14.35;;
32200;SDS011;18701;45.588;5.288;2022-12-11T10:48:44;29.13;;;14.57;;
32200;SDS011;18701;45.588;5.288;2022-12-11T10:51:18;26.52;;;14.80;;
32200;SDS011;18701;45.588;5.288;2022-12-11T10:53:51;31.17;;;15.15;;
32200;SDS011;18701;45.588;5.288;2022-12-11T10:56:29;27.40;;;14.85;;
32200;SDS011;18701;45.588;5.288;2022-12-11T10:58:57;32.22;;;16.25;;
32200;SDS011;18701;45.588;5.288;2022-12-11T11:01:24;34.25;;;18.10;;
32200;SDS011;18701;45.588;5.288;2022-12-11T11:06:42;33.28;;;16.67;;
32200;SDS011;18701;45.588;5.288;2022-12-11T11:12:04;33.17;;;16.13;;
32200;SDS011;18701;45.588;5.288;2022-12-11T11:14:41;33.35;;;17.25;;
32200;SDS011;18701;45.588;5.288;2022-12-11T11:17:10;36.65;;;18.33;;
32200;SDS011;18701;45.588;5.288;2022-12-11T11:19:39;35.00;;;18.08;;
32200;SDS011;18701;45.588;5.288;2022-12-11T11:22:06;38.75;;;17.70;;
32200;SDS011;18701;45.588;5.288;2022-12-11T11:30:01;36.05;;;18.20;;
32200;SDS011;18701;45.588;5.288;2022-12-11T11:32:41;32.90;;;17.65;;
32200;SDS011;18701;45.588;5.288;2022-12-11T11:37:35;32.92;;;17.58;;
32200;SDS011;18701;45.588;5.288;2022-12-11T11:42:55;38.15;;;18.38;;
32200;SDS011;18701;45.588;5.288;2022-12-11T11:45:33;41.42;;;18.42;;
32200;SDS011;18701;45.588;5.288;2022-12-11T11:48:29;33.50;;;16.45;;
32200;SDS011;18701;45.588;5.288;2022-12-11T11:51:15;32.50;;;17.13;;
32200;SDS011;18701;45.588;5.288;2022-12-11T11:53:51;39.53;;;18.88;;
32200;SDS011;18701;45.588;5.288;2022-12-11T11:56:25;40.00;;;17.80;;
32200;SDS011;18701;45.588;5.288;2022-12-11T12:01:55;36.05;;;18.25;;
32200;SDS011;18701;45.588;5.288;2022-12-11T12:04:22;37.40;;;19.65;;
32200;SDS011;18701;45.588;5.288;2022-12-11T12:09:53;39.00;;;18.08;;
32200;SDS011;18701;45.588;5.288;2022-12-11T12:20:40;31.10;;;15.95;;
32200;SDS011;18701;45.588;5.288;2022-12-11T12:29:09;31.25;;;16.50;;
32200;SDS011;18701;45.588;5.288;2022-12-11T12:37:46;37.35;;;17.75;;
32200;SDS011;18701;45.588;5.288;2022-12-11T12:45:48;34.92;;;16.77;;
32200;SDS011;18701;45.588;5.288;2022-12-11T12:48:25;35.17;;;17.40;;
32200;SDS011;18701;45.588;5.288;2022-12-11T12:50:51;33.97;;;17.10;;
32200;SDS011;18701;45.588;5.288;2022-12-11T12:53:19;34.13;;;16.80;;
32200;SDS011;18701;45.588;5.288;2022-12-11T12:55:48;39.67;;;18.38;;
32200;SDS011;18701;45.588;5.288;2022-12-11T13:06:26;35.25;;;16.80;;
32200;SDS011;18701;45.588;5.288;2022-12-11T13:08:55;37.03;;;18.10;;
32200;SDS011;18701;45.588;5.288;2022-12-11T13:11:29;34.92;;;17.08;;
32200;SDS011;18701;45.588;5.288;2022-12-11T13:14:03;35.47;;;17.23;;
32200;SDS011;18701;45.588;5.288;2022-12-11T13:16:48;35.60;;;17.27;;
32200;SDS011;18701;45.588;5.288;2022-12-11T13:24:31;39.47;;;18.77;;
32200;SDS011;18701;45.588;5.288;2022-12-11T13:27:10;35.50;;;17.77;;
32200;SDS011;18701;45.588;5.288;2022-12-11T13:29:47;39.80;;;18.05;;
32200;SDS011;18701;45.588;5.288;2022-12-11T13:34:42;41.70;;;19.63;;
32200;SDS011;18701;45.588;5.288;2022-12-11T13:37:26;44.03;;;21.15;;
32200;SDS011;18701;45.588;5.288;2022-12-11T13:39:59;36.25;;;17.50;;
32200;SDS011;18701;45.588;5.288;2022-12-11T13:42:48;35.08;;;17.17;;
32200;SDS011;18701;45.588;5.288;2022-12-11T13:47:55;45.55;;;19.45;;
32200;SDS011;18701;45.588;5.288;2022-12-11T13:50:23;41.33;;;19.02;;
32200;SDS011;18701;45.588;5.288;2022-12-11T13:52:53;38.30;;;19.75;;
32200;SDS011;18701;45.588;5.288;2022-12-11T13:55:22;44.03;;;19.27;;
32200;SDS011;18701;45.588;5.288;2022-12-11T13:57:54;41.30;;;18.52;;
32200;SDS011;18701;45.588;5.288;2022-12-11T14:00:24;37.15;;;18.25;;
32200;SDS011;18701;45.588;5.288;2022-12-11T14:02:52;41.42;;;18.35;;
32200;SDS011;18701;45.588;5.288;2022-12-11T14:05:21;40.05;;;17.92;;
32200;SDS011;18701;45.588;5.288;2022-12-11T14:07:48;36.65;;;18.23;;
32200;SDS011;18701;45.588;5.288;2022-12-11T14:10:17;38.05;;;18.55;;
32200;SDS011;18701;45.588;5.288;2022-12-11T14:12:58;41.25;;;19.92;;
32200;SDS011;18701;45.588;5.288;2022-12-11T14:15:30;40.08;;;18.77;;
32200;SDS011;18701;45.588;5.288;2022-12-11T14:17:57;41.33;;;19.50;;
32200;SDS011;18701;45.588;5.288;2022-12-11T14:20:26;46.35;;;19.23;;
32200;SDS011;18701;45.588;5.288;2022-12-11T14:23:03;44.17;;;19.88;;
32200;SDS011;18701;45.588;5.288;2022-12-11T14:25:31;51.33;;;21.90;;
32200;SDS011;18701;45.588;5.288;2022-12-11T14:27:56;49.40;;;20.17;;
32200;SDS011;18701;45.588;5.288;2022-12-11T14:30:23;43.63;;;19.73;;
32200;SDS011;18701;45.588;5.288;2022-12-11T14:32:52;38.85;;;18.13;;
32200;SDS011;18701;45.588;5.288;2022-12-11T14:35:28;44.40;;;19.45;;
32200;SDS011;18701;45.588;5.288;2022-12-11T14:37:59;38.50;;;18.40;;
32200;SDS011;18701;45.588;5.288;2022-12-11T14:40:33;39.60;;;17.73;;
32200;SDS011;18701;45.588;5.288;2022-12-11T14:43:13;42.03;;;18.38;;
32200;SDS011;18701;45.588;5.288;2022-12-11T14:45:47;36.33;;;16.30;;
32200;SDS011;18701;45.588;5.288;2022-12-11T14:48:22;40.97;;;19.40;;
32200;SDS011;18701;45.588;5.288;2022-12-11T14:50:54;39.80;;;18.90;;
32200;SDS011;18701;45.588;5.288;2022-12-11T14:53:23;35.88;;;17.63;;
32200;SDS011;18701;45.588;5.288;2022-12-11T14:55:53;40.60;;;17.92;;
32200;SDS011;18701;45.588;5.288;2022-12-11T14:58:24;40.60;;;18.27;;
32200;SDS011;18701;45.588;5.288;2022-12-11T15:00:55;38.55;;;17.42;;
32200;SDS011;18701;45.588;5.288;2022-12-11T15:03:39;40.25;;;20.20;;
32200;SDS011;18701;45.588;5.288;2022-12-11T15:06:26;43.63;;;21.27;;
32200;SDS011;18701;45.588;5.288;2022-12-11T15:08:53;37.90;;;18.05;;
32200;SDS011;18701;45.588;5.288;2022-12-11T15:11:19;42.65;;;20.08;;
32200;SDS011;18701;45.588;5.288;2022-12-11T15:13:52;47.97;;;20.75;;
32200;SDS011;18701;45.588;5.288;2022-12-11T15:16:24;39.17;;;18.13;;
32200;SDS011;18701;45.588;5.288;2022-12-11T15:18:52;39.63;;;19.05;;
32200;SDS011;18701;45.588;5.288;2022-12-11T15:21:26;43.30;;;18.10;;
32200;SDS011;18701;45.588;5.288;2022-12-11T15:23:58;38.58;;;18.33;;
32200;SDS011;18701;45.588;5.288;2022-12-11T15:26:34;40.38;;;18.95;;
32200;SDS011;18701;45.588;5.288;2022-12-11T15:29:03;36.42;;;17.30;;
32200;SDS011;18701;45.588;5.288;2022-12-11T15:31:32;36.15;;;17.10;;
32200;SDS011;18701;45.588;5.288;2022-12-11T15:33:59;33.13;;;16.83;;
32200;SDS011;18701;45.588;5.288;2022-12-11T15:36:32;41.45;;;19.08;;
32200;SDS011;18701;45.588;5.288;2022-12-11T15:39:00;42.72;;;19.30;;
32200;SDS011;18701;45.588;5.288;2022-12-11T15:41:27;35.85;;;17.60;;
32200;SDS011;18701;45.588;5.288;2022-12-11T15:43:59;39.80;;;19.08;;
32200;SDS011;18701;45.588;5.288;2022-12-11T15:46:27;42.10;;;18.83;;
32200;SDS011;18701;45.588;5.288;2022-12-11T15:48:53;37.83;;;18.92;;
32200;SDS011;18701;45.588;5.288;2022-12-11T15:51:20;38.13;;;18.35;;
32200;SDS011;18701;45.588;5.288;2022-12-11T15:53:47;38.92;;;18.73;;
32200;SDS011;18701;45.588;5.288;2022-12-11T15:56:15;38.15;;;18.98;;
32200;SDS011;18701;45.588;5.288;2022-12-11T15:58:42;38.47;;;19.50;;
32200;SDS011;18701;45.588;5.288;2022-12-11T16:01:09;42.72;;;19.60;;
32200;SDS011;18701;45.588;5.288;2022-12-11T16:03:35;43.10;;;20.58;;
32200;SDS011;18701;45.588;5.288;2022-12-11T16:06:00;42.67;;;19.63;;
32200;SDS011;18701;45.588;5.288;2022-12-11T16:08:26;43.92;;;20.15;;
32200;SDS011;18701;45.588;5.288;2022-12-11T16:10:52;40.28;;;19.65;;
32200;SDS011;18701;45.588;5.288;2022-12-11T16:13:19;43.28;;;20.17;;
32200;SDS011;18701;45.588;5.288;2022-12-11T16:15:46;48.78;;;21.00;;
32200;SDS011;18701;45.588;5.288;2022-12-11T16:18:15;42.50;;;18.38;;
32200;SDS011;18701;45.588;5.288;2022-12-11T16:20:43;44.60;;;19.60;;
32200;SDS011;18701;45.588;5.288;2022-12-11T16:23:09;40.35;;;19.77;;
32200;SDS011;18701;45.588;5.288;2022-12-11T16:25:37;43.15;;;20.80;;
32200;SDS011;18701;45.588;5.288;2022-12-11T16:28:03;42.88;;;19.95;;
32200;SDS011;18701;45.588;5.288;2022-12-11T16:30:29;48.90;;;21.42;;
32200;SDS011;18701;45.588;5.288;2022-12-11T16:32:55;40.95;;;19.23;;
32200;SDS011;18701;45.588;5.288;2022-12-11T16:35:21;46.10;;;20.58;;
32200;SDS011;18701;45.588;5.288;2022-12-11T16:37:47;41.72;;;19.83;;
32200;SDS011;18701;45.588;5.288;2022-12-11T16:40:14;43.20;;;19.90;;
32200;SDS011;18701;45.588;5.288;2022-12-11T16:42:40;40.25;;;19.63;;